Time;durP1;ratioP1;P1;durP2;ratioP2;P2;SDS_P1;SDS_P2;PMS_P1;PMS_P2;Temp;Humidity;BMP_temperature;BMP_pressure;BME280_temperature;BME280_humidity;BME280_pressure;Samples;Min_cycle;Max_cycle;Signal;HPM_P1;HPM_P2
2022/03/09 00:03:20;;;;;;;15.88;9.40;;;;;;;3.72;65.03;101128.08;3516011;79;21645;-66
2022/03/09 00:08:11;;;;;;;13.48;8.10;;;;;;;3.79;65.06;101128.49;3447470;80;21011;-66
2022/03/09 00:13:02;;;;;;;14.73;8.20;;;;;;;3.82;65.15;101126.05;3477481;79;20931;-66
2022/03/09 00:17:53;;;;;;;10.93;7.22;;;;;;;3.85;65.14;101120.61;3476210;80;21431;-66
2022/03/09 00:22:44;;;;;;;12.90;8.15;;;;;;;3.82;65.02;101123.48;3481822;79;20967;-67
2022/03/09 00:27:36;;;;;;;15.32;7.28;;;;;;;3.80;65.17;101131.52;3537305;79;21075;-66
2022/03/09 00:32:27;;;;;;;18.73;8.43;;;;;;;3.76;65.26;101133.47;3553185;79;21698;-66
2022/03/09 00:37:18;;;;;;;16.30;8.38;;;;;;;3.72;65.22;101126.79;3537529;79;20960;-66
2022/03/09 00:42:10;;;;;;;15.72;8.75;;;;;;;3.72;65.34;101129.36;3511941;79;20913;-66
2022/03/09 00:47:02;;;;;;;14.75;9.35;;;;;;;3.75;65.46;101127.83;3490770;79;21002;-66
2022/03/09 00:51:53;;;;;;;12.03;8.13;;;;;;;3.78;65.52;101125.42;3534590;79;20995;-66
2022/03/09 00:56:46;;;;;;;11.53;7.65;;;;;;;3.77;65.53;101123.67;3520793;79;20884;-66
2022/03/09 01:01:37;;;;;;;14.20;7.67;;;;;;;3.75;65.59;101127.83;3541616;79;21656;-66
2022/03/09 01:06:28;;;;;;;15.93;8.88;;;;;;;3.73;65.55;101124.30;3500656;79;20971;-66
2022/03/09 01:11:20;;;;;;;15.72;9.10;;;;;;;3.72;65.56;101122.55;3521521;79;21213;-66
2022/03/09 01:16:12;;;;;;;14.40;9.15;;;;;;;3.69;65.76;101114.67;3499142;79;21536;-66
2022/03/09 01:21:03;;;;;;;22.37;9.00;;;;;;;3.67;65.80;101113.72;3542170;79;20948;-66
2022/03/09 01:25:54;;;;;;;13.60;8.13;;;;;;;3.70;65.67;101115.17;3527247;79;20963;-67
2022/03/09 01:30:45;;;;;;;15.50;8.53;;;;;;;3.72;65.86;101107.13;3526849;79;21085;-66
2022/03/09 01:35:36;;;;;;;12.35;7.62;;;;;;;3.73;65.90;101108.87;3552300;79;20904;-67
2022/03/09 01:40:28;;;;;;;12.78;7.90;;;;;;;3.70;65.77;101101.02;3551779;79;20971;-67
2022/03/09 01:45:20;;;;;;;17.12;8.35;;;;;;;3.66;65.78;101093.94;3511793;79;21305;-66
2022/03/09 01:50:11;;;;;;;14.55;9.48;;;;;;;3.61;65.85;101097.95;3526340;79;21403;-66
2022/03/09 01:55:04;;;;;;;15.63;9.43;;;;;;;3.59;65.81;101094.42;3477547;79;20959;-66
2022/03/09 01:59:55;;;;;;;13.45;8.75;;;;;;;3.56;65.72;101087.45;3533617;79;21167;-66
2022/03/09 02:04:47;;;;;;;17.23;9.55;;;;;;;3.59;65.76;101088.00;3550123;79;21417;-66
2022/03/09 02:09:43;;;;;;;14.87;8.98;;;;;;;3.66;65.87;101087.50;3567681;79;21571;-66
2022/03/09 02:14:44;;;;;;;17.42;8.85;;;;;;;3.66;65.79;101082.36;3510461;79;21406;-66
2022/03/09 02:19:35;;;;;;;17.35;8.90;;;;;;;3.68;65.73;101078.59;3560318;79;21133;-66
2022/03/09 02:24:26;;;;;;;14.18;8.75;;;;;;;3.64;65.81;101077.55;3513881;79;20908;-66
2022/03/09 02:29:17;;;;;;;14.87;8.93;;;;;;;3.62;65.91;101067.59;3536179;79;22134;-66
2022/03/09 02:34:08;;;;;;;18.30;9.48;;;;;;;3.53;65.89;101068.42;3525748;79;21078;-66
2022/03/09 02:39:00;;;;;;;15.65;9.48;;;;;;;3.53;65.89;101068.42;3512241;79;21407;-67
2022/03/09 02:43:51;;;;;;;14.05;10.23;;;;;;;3.55;65.96;101070.66;3557677;79;21242;-66
2022/03/09 02:48:44;;;;;;;16.00;9.50;;;;;;;3.58;66.05;101073.39;3551410;78;20924;-66
2022/03/09 02:53:36;;;;;;;15.20;9.28;;;;;;;3.57;65.97;101078.04;3561469;79;20956;-66
2022/03/09 02:58:27;;;;;;;15.25;9.98;;;;;;;3.55;66.00;101078.38;3486087;79;21453;-66
2022/03/09 03:03:18;;;;;;;19.62;12.10;;;;;;;3.48;65.97;101080.15;3542536;79;20924;-66
2022/03/09 03:08:09;;;;;;;16.30;10.00;;;;;;;3.43;66.05;101076.95;3516606;79;21040;-66
2022/03/09 03:13:00;;;;;;;16.70;10.10;;;;;;;3.42;66.07;101080.31;3532642;79;21071;-66
2022/03/09 03:17:51;;;;;;;17.87;10.93;;;;;;;3.46;65.99;101074.05;3561839;79;21528;-66
2022/03/09 03:22:42;;;;;;;15.28;9.58;;;;;;;3.53;65.99;101064.56;3519428;79;21618;-66
2022/03/09 03:27:33;;;;;;;19.00;9.03;;;;;;;3.52;65.86;101075.22;3584522;78;20955;-66
2022/03/09 03:32:24;;;;;;;13.78;9.13;;;;;;;3.51;65.89;101077.74;3524080;79;21488;-67
2022/03/09 03:37:16;;;;;;;17.92;10.48;;;;;;;3.48;65.82;101074.59;3543726;78;20916;-66
2022/03/09 03:42:07;;;;;;;15.80;10.75;;;;;;;3.46;65.67;101072.77;3566206;79;21460;-66
2022/03/09 03:46:58;;;;;;;15.80;10.18;;;;;;;3.43;65.71;101073.09;3535363;79;20939;-66
2022/03/09 03:51:49;;;;;;;20.05;11.35;;;;;;;3.44;65.80;101061.98;3532330;79;20960;-66
2022/03/09 03:56:40;;;;;;;17.15;11.15;;;;;;;3.46;65.76;101063.77;3552276;79;21116;-66
2022/03/09 04:01:31;;;;;;;18.20;10.63;;;;;;;3.46;65.72;101056.05;3552020;79;20967;-66
2022/03/09 04:06:22;;;;;;;14.73;9.03;;;;;;;3.44;65.80;101061.98;3524995;78;21441;-66
2022/03/09 04:11:13;;;;;;;16.07;9.18;;;;;;;3.42;65.89;101063.59;3558415;79;21630;-66
2022/03/09 04:16:05;;;;;;;18.37;9.53;;;;;;;3.32;65.77;101061.34;3572417;79;21619;-67
2022/03/09 04:20:56;;;;;;;16.82;9.43;;;;;;;3.31;65.84;101072.45;3498105;79;21069;-66
2022/03/09 04:25:47;;;;;;;14.03;9.25;;;;;;;3.29;65.98;101065.07;3559420;78;21493;-66
2022/03/09 04:30:38;;;;;;;16.90;9.15;;;;;;;3.27;66.08;101058.94;3551584;79;20987;-66
2022/03/09 04:35:30;;;;;;;21.07;10.55;;;;;;;3.32;66.05;101053.64;3518047;79;21002;-66
2022/03/09 04:40:21;;;;;;;19.20;11.55;;;;;;;3.35;66.07;101057.66;3518275;79;21650;-66
2022/03/09 04:45:12;;;;;;;18.23;11.43;;;;;;;3.29;65.92;101065.07;3474138;79;21023;-66
2022/03/09 04:50:04;;;;;;;26.10;13.98;;;;;;;3.18;66.03;101069.66;3491276;79;20857;-66
2022/03/09 04:54:55;;;;;;;20.05;10.78;;;;;;;3.18;66.03;101069.66;3543730;79;21671;-65
2022/03/09 04:59:46;;;;;;;20.65;11.25;;;;;;;3.19;66.01;101080.39;3510250;79;20993;-66
2022/03/09 05:04:38;;;;;;;24.07;13.30;;;;;;;3.19;66.13;101084.66;3518835;79;20920;-66
2022/03/09 05:09:29;;;;;;;21.37;11.20;;;;;;;3.24;66.28;101078.08;3554035;79;21121;-66
2022/03/09 05:14:20;;;;;;;15.48;10.70;;;;;;;3.29;66.07;101083.44;3542839;79;20952;-66
2022/03/09 05:19:11;;;;;;;15.28;9.35;;;;;;;3.31;66.28;101083.11;3559844;79;20968;-66
2022/03/09 05:24:03;;;;;;;18.00;10.98;;;;;;;3.27;66.33;101088.49;3574768;79;20899;-69
2022/03/09 05:28:56;;;;;;;18.20;11.45;;;;;;;3.26;66.35;101103.45;3589398;78;20920;-66
2022/03/09 05:33:47;;;;;;;16.57;10.60;;;;;;;3.27;66.49;101101.75;3540162;79;21005;-66
2022/03/09 05:38:38;;;;;;;16.50;10.80;;;;;;;3.31;66.48;101101.11;3585722;79;20944;-66
2022/03/09 05:43:29;;;;;;;14.85;10.05;;;;;;;3.40;66.27;101106.34;3552483;79;20975;-67
2022/03/09 05:48:20;;;;;;;22.17;11.25;;;;;;;3.51;65.99;101103.45;3569844;79;21420;-67
2022/03/09 05:53:11;;;;;;;21.57;10.98;;;;;;;3.58;66.01;101113.25;3557241;79;22395;-67
2022/03/09 05:58:02;;;;;;;17.60;12.00;;;;;;;3.64;65.90;101118.69;3501099;79;21659;-67
2022/03/09 06:02:53;;;;;;;16.23;10.88;;;;;;;3.67;65.76;101109.86;3543476;79;20910;-67
2022/03/09 06:07:44;;;;;;;15.45;8.90;;;;;;;3.70;65.66;101110.41;3514136;79;21472;-67
2022/03/09 06:12:35;;;;;;;16.27;9.15;;;;;;;3.69;65.58;101112.09;3481932;79;21741;-67
2022/03/09 06:17:26;;;;;;;14.63;9.25;;;;;;;3.71;65.32;101118.20;3564691;79;21463;-67
2022/03/09 06:22:17;;;;;;;15.90;10.75;;;;;;;3.75;65.22;101121.81;3596827;78;20868;-67
2022/03/09 06:27:08;;;;;;;19.62;11.53;;;;;;;3.77;65.26;101127.53;3585809;78;21417;-67
2022/03/09 06:32:00;;;;;;;15.25;9.98;;;;;;;3.80;65.09;101128.95;3591179;78;20975;-67
2022/03/09 06:36:52;;;;;;;17.75;10.58;;;;;;;3.85;64.94;101129.61;3604077;79;20986;-67
2022/03/09 06:41:45;;;;;;;15.65;8.60;;;;;;;3.91;64.83;101126.05;3528697;79;20978;-67
2022/03/09 06:46:37;;;;;;;15.05;8.80;;;;;;;4.03;64.68;101126.67;3547104;79;21086;-67
2022/03/09 06:51:28;;;;;;;12.40;8.33;;;;;;;4.17;64.39;101124.78;3583709;79;20908;-68
2022/03/09 06:56:19;;;;;;;18.20;9.50;;;;;;;4.29;64.17;101134.78;3571614;79;20974;-67
2022/03/09 07:01:11;;;;;;;15.15;8.78;;;;;;;4.46;63.70;101133.92;3612956;78;20977;-67
2022/03/09 07:06:02;;;;;;;13.22;8.28;;;;;;;4.62;63.53;101129.10;3592111;79;22005;-67
2022/03/09 07:10:53;;;;;;;14.40;8.03;;;;;;;4.76;63.03;101136.20;3550294;79;21294;-67
2022/03/09 07:15:45;;;;;;;11.88;7.58;;;;;;;4.87;62.93;101136.30;3557761;79;21057;-67
2022/03/09 07:20:36;;;;;;;16.27;8.43;;;;;;;4.91;62.14;101126.59;3525422;78;21443;-68
2022/03/09 07:25:28;;;;;;;10.48;6.42;;;;;;;4.95;62.10;101127.63;3544040;78;21150;-67
2022/03/09 07:30:19;;;;;;;9.58;5.78;;;;;;;5.06;61.27;101123.86;3538502;79;21003;-67
2022/03/09 07:35:11;;;;;;;12.23;8.05;;;;;;;5.25;61.30;101110.09;3570350;79;21113;-67
2022/03/09 07:40:07;;;;;;;11.93;7.60;;;;;;;5.43;60.84;101095.84;3519688;79;21047;-67
2022/03/09 07:45:00;;;;;;;11.65;6.47;;;;;;;5.62;60.57;101098.83;3523821;79;20950;-68
2022/03/09 07:49:51;;;;;;;8.75;6.25;;;;;;;5.83;60.32;101094.09;3506298;79;20944;-67
2022/03/09 07:54:42;;;;;;;13.35;6.78;;;;;;;5.99;59.94;101091.39;3525097;79;21442;-67
2022/03/09 07:59:33;;;;;;;8.50;5.47;;;;;;;6.24;59.32;101093.66;3503984;79;21827;-68
2022/03/09 08:04:25;;;;;;;8.73;5.55;;;;;;;6.48;58.61;101097.23;3542082;79;20988;-68
2022/03/09 08:09:17;;;;;;;8.43;4.72;;;;;;;7.00;58.21;101100.08;3600283;79;20954;-67
2022/03/09 08:14:10;;;;;;;5.70;3.92;;;;;;;7.96;56.82;101091.41;3515203;79;21606;-67
2022/03/09 08:19:01;;;;;;;12.53;4.50;;;;;;;8.10;55.87;101099.23;3529890;79;20975;-68
2022/03/09 08:23:52;;;;;;;6.75;4.30;;;;;;;8.24;55.40;101111.31;3600205;79;21003;-68
2022/03/09 08:28:43;;;;;;;7.40;4.37;;;;;;;8.30;54.88;101111.53;3565422;79;21449;-67
2022/03/09 08:33:34;;;;;;;7.60;5.00;;;;;;;8.46;54.49;101103.88;3529397;79;21109;-68
2022/03/09 08:38:26;;;;;;;5.50;4.25;;;;;;;8.53;54.02;101104.53;3561914;79;20952;-68
2022/03/09 08:43:18;;;;;;;5.62;4.40;;;;;;;8.53;53.90;101108.81;3585019;78;21547;-69
2022/03/09 08:48:09;;;;;;;6.45;4.45;;;;;;;8.50;53.85;101110.91;3525272;79;21090;-69
2022/03/09 08:53:00;;;;;;;6.25;3.37;;;;;;;8.43;53.78;101114.55;3498500;79;20863;-69
2022/03/09 08:57:51;;;;;;;5.95;4.53;;;;;;;8.39;53.08;101114.41;3512044;79;20960;-68
2022/03/09 09:02:43;;;;;;;5.87;3.75;;;;;;;8.24;53.29;101112.61;3585375;79;20960;-69
2022/03/09 09:07:34;;;;;;;5.03;3.65;;;;;;;8.12;53.14;101110.91;3493684;79;20943;-68
2022/03/09 09:12:25;;;;;;;5.70;3.72;;;;;;;8.26;53.29;101113.53;3543596;79;21083;-70
2022/03/09 09:17:16;;;;;;;6.65;4.30;;;;;;;8.53;52.84;101109.71;3536249;79;21709;-69
2022/03/09 09:22:07;;;;;;;5.30;3.17;;;;;;;8.82;52.23;101110.12;3451963;81;20943;-68
2022/03/09 09:26:59;;;;;;;6.75;4.03;;;;;;;8.80;52.67;101110.11;3394181;81;20973;-69
2022/03/09 09:31:50;;;;;;;6.70;3.60;;;;;;;8.71;52.59;101113.30;3349218;82;20957;-68
2022/03/09 09:36:45;;;;;;;5.42;3.98;;;;;;;8.54;52.50;101104.97;3397912;83;21182;-68
2022/03/09 09:41:36;;;;;;;7.42;3.90;;;;;;;8.27;52.66;101107.53;3387491;83;21105;-68
2022/03/09 09:46:28;;;;;;;5.20;3.67;;;;;;;8.13;53.36;101107.08;3375376;83;20988;-68
2022/03/09 09:51:23;;;;;;;6.97;3.80;;;;;;;8.15;53.69;101113.61;3369208;83;21194;-69
2022/03/09 09:56:14;;;;;;;5.37;3.52;;;;;;;8.20;53.62;101114.64;3419541;83;21000;-68
2022/03/09 10:01:06;;;;;;;7.03;3.52;;;;;;;8.24;53.80;101112.61;3416835;82;21308;-68
2022/03/09 10:05:57;;;;;;;6.40;3.00;;;;;;;8.46;53.40;101112.04;3380500;83;21016;-68
2022/03/09 10:11:01;;;;;;;5.58;3.65;;;;;;;8.86;53.03;101115.89;3351562;84;20920;-68
2022/03/09 10:16:20;;;;;;;5.20;3.90;;;;;;;9.07;52.58;101109.17;3372420;83;20963;-68
2022/03/09 10:21:17;;;;;;;3.83;2.75;;;;;;;9.27;52.88;101115.80;3351451;83;20943;-69
2022/03/09 10:26:08;;;;;;;7.80;3.47;;;;;;;9.09;52.24;101121.77;3391102;82;21159;-68
2022/03/09 10:30:59;;;;;;;7.37;3.85;;;;;;;9.11;52.32;101115.77;3461972;82;21055;-68
2022/03/09 10:35:51;;;;;;;4.85;3.40;;;;;;;9.07;52.74;101123.02;3476231;82;20932;-68
2022/03/09 10:40:45;;;;;;;8.50;4.25;;;;;;;8.96;52.78;101125.71;3423312;82;20968;-69
2022/03/09 10:45:37;;;;;;;11.63;3.52;;;;;;;8.86;52.38;101119.78;3462677;82;20979;-68
2022/03/09 10:50:28;;;;;;;4.60;3.25;;;;;;;8.77;52.22;101125.13;3437053;82;21583;-68
2022/03/09 10:55:35;;;;;;;4.35;2.60;;;;;;;8.80;52.60;101128.65;3460448;81;21480;-69
2022/03/09 11:00:51;;;;;;;4.83;3.50;;;;;;;8.83;52.43;101123.56;3436267;82;20960;-68
2022/03/09 11:06:02;;;;;;;4.47;3.33;;;;;;;8.97;52.34;101120.97;3414719;82;20989;-69
2022/03/09 11:10:58;;;;;;;5.25;3.22;;;;;;;9.20;52.14;101115.59;3408431;82;39009;-70
2022/03/09 11:15:50;;;;;;;3.80;3.20;;;;;;;9.46;52.09;101115.91;3402261;81;22740;-69
2022/03/09 11:20:41;;;;;;;6.60;4.42;;;;;;;9.43;52.06;101119.72;3416967;82;21623;-68
2022/03/09 11:25:33;;;;;;;6.15;3.50;;;;;;;9.39;52.03;101132.16;3455249;81;21377;-69
2022/03/09 11:30:33;;;;;;;4.30;3.30;;;;;;;9.25;51.74;101134.34;3481826;82;20960;-68
2022/03/09 11:35:40;;;;;;;6.00;3.95;;;;;;;9.12;51.78;101127.02;3447324;82;20968;-69
2022/03/09 11:40:31;;;;;;;4.08;2.70;;;;;;;9.05;52.27;101131.17;3443486;82;21081;-68
2022/03/09 11:45:30;;;;;;;3.90;3.12;;;;;;;8.83;52.39;101135.23;3451566;82;20963;-69
2022/03/09 11:50:22;;;;;;;3.72;3.00;;;;;;;8.56;52.28;101140.02;3420775;82;20966;-69
2022/03/09 11:55:18;;;;;;;8.30;3.22;;;;;;;8.40;52.42;101152.43;3416964;82;20948;-69
2022/03/09 12:00:16;;;;;;;6.53;4.65;;;;;;;8.13;52.55;101139.45;3470991;81;21213;-68
2022/03/09 12:05:15;;;;;;;6.05;4.42;;;;;;;8.14;52.83;101151.59;3420054;82;21359;-68
2022/03/09 12:10:11;;;;;;;6.70;3.45;;;;;;;8.12;52.98;101153.64;3423259;81;20999;-67
2022/03/09 12:15:10;;;;;;;5.17;3.90;;;;;;;8.25;53.35;101150.65;3428225;82;21995;-68
2022/03/09 12:20:29;;;;;;;5.35;3.92;;;;;;;8.36;53.12;101158.35;3449859;82;21007;-68
2022/03/09 12:25:51;;;;;;;6.80;4.25;;;;;;;8.25;53.41;101154.53;3412553;81;20947;-68
2022/03/09 12:30:43;;;;;;;6.30;4.35;;;;;;;8.15;53.66;101171.45;3497277;81;22232;-68
2022/03/09 12:35:34;;;;;;;7.97;4.47;;;;;;;8.15;53.66;101171.45;3427361;81;20921;-69
2022/03/09 12:40:36;;;;;;;5.55;4.10;;;;;;;7.93;54.25;101167.69;3420565;82;21241;-69
2022/03/09 12:45:28;;;;;;;6.45;4.95;;;;;;;7.78;54.55;101164.12;3391321;82;21046;-69
2022/03/09 12:50:24;;;;;;;7.58;4.45;;;;;;;7.72;55.47;101180.31;3445237;82;21530;-68
2022/03/09 12:55:19;;;;;;;7.17;4.42;;;;;;;7.62;55.53;101189.47;3477734;81;21759;-69
2022/03/09 13:00:16;;;;;;;8.70;4.65;;;;;;;7.62;55.53;101189.47;3467763;82;21524;-68
2022/03/09 13:05:10;;;;;;;7.65;3.87;;;;;;;7.51;56.11;101195.97;3393647;82;20959;-68
2022/03/09 13:10:12;;;;;;;10.40;3.77;;;;;;;7.40;56.63;101199.84;3413136;82;20972;-68
2022/03/09 13:15:05;;;;;;;4.97;3.55;;;;;;;7.31;57.24;101196.91;3420691;82;20955;-69
2022/03/09 13:19:56;;;;;;;5.92;4.25;;;;;;;7.23;57.66;101182.41;3438555;81;21591;-69
2022/03/09 13:25:00;;;;;;;4.78;3.27;;;;;;;7.23;57.84;101205.27;3442124;81;21627;-70
2022/03/09 13:29:52;;;;;;;5.87;3.02;;;;;;;7.12;58.01;101203.98;3456824;82;21018;-69
2022/03/09 13:34:44;;;;;;;6.50;3.80;;;;;;;7.02;58.22;101204.44;3429566;81;20923;-68
2022/03/09 13:39:47;;;;;;;5.75;4.58;;;;;;;6.95;58.45;101199.42;3444583;80;20953;-69
2022/03/09 13:44:38;;;;;;;6.30;4.65;;;;;;;6.84;58.63;101205.46;3411751;83;22592;-67
2022/03/09 13:49:46;;;;;;;7.22;4.78;;;;;;;6.77;59.47;101213.79;3411599;81;21504;-67
2022/03/09 13:54:46;;;;;;;8.48;5.10;;;;;;;6.62;60.17;101210.61;3412532;81;20994;-67
2022/03/09 13:59:42;;;;;;;8.60;5.05;;;;;;;6.57;60.51;101218.57;3438237;80;20939;-67
2022/03/09 14:04:43;;;;;;;7.55;5.87;;;;;;;6.56;60.66;101218.95;3378465;80;21033;-67
2022/03/09 14:09:34;;;;;;;9.60;5.95;;;;;;;6.59;60.90;101215.64;3450424;80;22028;-68
2022/03/09 14:14:27;;;;;;;8.90;5.85;;;;;;;6.54;60.97;101219.73;3457727;81;20952;-68
2022/03/09 14:19:20;;;;;;;9.25;5.30;;;;;;;6.46;61.02;101232.34;3398463;81;20944;-68
2022/03/09 14:24:12;;;;;;;10.40;6.45;;;;;;;6.31;61.17;101239.01;3431608;81;21497;-68
2022/03/09 14:29:04;;;;;;;9.38;7.30;;;;;;;6.21;61.76;101252.36;3359610;81;21568;-67
2022/03/09 14:33:57;;;;;;;9.10;7.62;;;;;;;6.04;62.46;101264.10;3413192;81;21193;-68
2022/03/09 14:38:48;;;;;;;8.78;5.87;;;;;;;5.84;63.44;101276.52;3420799;81;21533;-68
2022/03/09 14:43:42;;;;;;;7.22;5.08;;;;;;;5.54;64.07;101283.31;3415711;82;20996;-68
2022/03/09 14:48:34;;;;;;;9.10;6.60;;;;;;;5.30;64.86;101290.38;3427633;81;21607;-68
2022/03/09 14:53:28;;;;;;;8.03;6.37;;;;;;;5.19;65.45;101295.44;3449794;81;20991;-68
2022/03/09 14:58:21;;;;;;;9.10;6.42;;;;;;;5.15;65.97;101302.53;3490809;81;21314;-68
2022/03/09 15:03:13;;;;;;;8.08;7.17;;;;;;;5.04;66.34;101314.02;3413206;81;21068;-68
2022/03/09 15:08:04;;;;;;;7.72;6.62;;;;;;;4.89;66.59;101313.75;3423597;81;20955;-69
2022/03/09 15:12:56;;;;;;;10.45;7.97;;;;;;;4.79;66.98;101317.95;3423593;81;21535;-68
2022/03/09 15:17:48;;;;;;;8.38;6.92;;;;;;;4.75;67.42;101318.63;3438083;82;20967;-68
2022/03/09 15:22:39;;;;;;;9.65;7.45;;;;;;;4.66;67.98;101324.19;3368958;82;21854;-69
2022/03/09 15:27:30;;;;;;;8.05;7.17;;;;;;;4.55;67.99;101327.51;3396761;82;20984;-68
2022/03/09 15:32:22;;;;;;;10.82;9.05;;;;;;;4.46;68.21;101338.63;3464345;81;20971;-67
2022/03/09 15:37:15;;;;;;;10.53;8.65;;;;;;;4.51;68.34;101343.62;3466012;81;20977;-67
2022/03/09 15:42:07;;;;;;;11.22;9.20;;;;;;;4.55;68.33;101345.95;3433605;81;20996;-67
2022/03/09 15:46:59;;;;;;;10.55;9.08;;;;;;;4.46;68.34;101345.06;3409414;82;21187;-69
2022/03/09 15:51:51;;;;;;;9.83;8.68;;;;;;;4.41;68.85;101351.66;3413564;81;20999;-68
2022/03/09 15:56:43;;;;;;;10.85;8.83;;;;;;;4.32;68.64;101355.05;3436474;82;21041;-69
2022/03/09 16:01:34;;;;;;;13.08;9.90;;;;;;;4.25;68.57;101360.68;3448647;82;20995;-68
2022/03/09 16:06:25;;;;;;;10.05;8.90;;;;;;;4.22;68.85;101367.86;3454078;82;20983;-68
2022/03/09 16:11:18;;;;;;;14.58;10.60;;;;;;;4.22;68.86;101375.95;3346073;82;21022;-69
2022/03/09 16:16:11;;;;;;;14.07;9.80;;;;;;;4.18;69.02;101387.37;3375334;82;20976;-68
2022/03/09 16:21:03;;;;;;;11.40;9.65;;;;;;;4.13;69.12;101388.84;3437789;81;20944;-68
2022/03/09 16:25:54;;;;;;;14.05;11.33;;;;;;;4.04;69.29;101390.89;3402451;82;21504;-69
2022/03/09 16:30:46;;;;;;;16.17;11.33;;;;;;;3.95;69.56;101398.11;3431797;82;21044;-68
2022/03/09 16:35:37;;;;;;;14.90;11.55;;;;;;;3.94;69.67;101401.50;3447782;82;21085;-68
2022/03/09 16:40:28;;;;;;;19.07;13.90;;;;;;;3.90;69.74;101412.41;3419005;82;20979;-68
2022/03/09 16:45:21;;;;;;;18.87;12.60;;;;;;;3.84;69.81;101426.23;3437913;82;21056;-68
2022/03/09 16:50:15;;;;;;;14.35;11.20;;;;;;;3.81;70.01;101423.10;3450793;80;21452;-68
2022/03/09 16:55:08;;;;;;;17.95;12.35;;;;;;;3.80;70.18;101436.34;3443277;80;21940;-68
2022/03/09 16:59:59;;;;;;;15.18;12.13;;;;;;;3.73;70.00;101440.66;3574754;79;21664;-67
2022/03/09 17:04:51;;;;;;;15.08;11.38;;;;;;;3.70;70.06;101445.66;3602578;77;21475;-67
2022/03/09 17:09:42;;;;;;;17.80;13.90;;;;;;;3.68;70.18;101453.66;3592870;77;22244;-67
2022/03/09 17:14:33;;;;;;;15.85;11.88;;;;;;;3.67;70.14;101453.56;3573588;77;20955;-68
2022/03/09 17:19:25;;;;;;;15.10;10.98;;;;;;;3.65;69.94;101459.94;3481544;79;20948;-67
2022/03/09 17:24:16;;;;;;;17.40;12.18;;;;;;;3.58;69.93;101460.38;3461689;80;21060;-66
2022/03/09 17:29:07;;;;;;;17.25;11.97;;;;;;;3.54;69.96;101469.61;3426719;80;20998;-67
2022/03/09 17:33:58;;;;;;;15.78;11.57;;;;;;;3.54;69.99;101489.27;3453664;81;21446;-67
2022/03/09 17:38:50;;;;;;;15.90;12.07;;;;;;;3.59;70.09;101495.56;3412204;81;20924;-67
2022/03/09 17:43:41;;;;;;;15.78;12.98;;;;;;;3.55;70.12;101505.20;3396610;81;21779;-67
2022/03/09 17:48:33;;;;;;;17.02;13.32;;;;;;;3.52;70.02;101510.16;3451782;81;21263;-67
2022/03/09 17:53:24;;;;;;;25.57;17.57;;;;;;;3.36;69.87;101522.51;3441667;81;20998;-67
2022/03/09 17:58:17;;;;;;;20.95;13.10;;;;;;;3.32;69.89;101529.15;3501061;80;21559;-66
2022/03/09 18:03:08;;;;;;;16.45;11.63;;;;;;;3.33;69.79;101536.08;3405707;80;21023;-67
2022/03/09 18:07:59;;;;;;;17.20;12.45;;;;;;;3.28;69.76;101542.63;3383908;82;21457;-67
2022/03/09 18:12:51;;;;;;;17.25;11.83;;;;;;;3.23;69.70;101551.73;3350221;82;21495;-67
2022/03/09 18:17:42;;;;;;;16.93;13.38;;;;;;;3.12;69.36;101557.52;3413894;81;20979;-67
2022/03/09 18:22:33;;;;;;;15.63;10.45;;;;;;;3.07;69.43;101561.89;3474735;81;20975;-67
2022/03/09 18:27:27;;;;;;;20.77;12.82;;;;;;;3.16;69.37;101572.73;3478737;81;21010;-68
2022/03/09 18:32:21;;;;;;;13.53;9.88;;;;;;;3.09;69.21;101566.31;3485802;80;21464;-67
2022/03/09 18:37:14;;;;;;;11.90;9.28;;;;;;;2.97;69.00;101571.61;3442347;82;21140;-67
2022/03/09 18:42:06;;;;;;;16.10;11.03;;;;;;;2.94;69.23;101592.38;3493321;80;21978;-67
2022/03/09 18:46:57;;;;;;;14.13;10.10;;;;;;;2.94;69.08;101609.08;3456524;80;21453;-67
2022/03/09 18:51:48;;;;;;;13.60;10.13;;;;;;;2.94;69.14;101624.48;3460748;80;21801;-67
2022/03/09 18:56:39;;;;;;;12.50;10.20;;;;;;;2.94;69.14;101624.48;3466617;80;21703;-67
2022/03/09 19:01:30;;;;;;;13.65;9.88;;;;;;;2.85;68.88;101627.37;3484222;80;22798;-67
2022/03/09 19:06:21;;;;;;;12.82;9.58;;;;;;;2.80;68.99;101640.31;3375842;80;20975;-66
2022/03/09 19:11:13;;;;;;;15.88;9.98;;;;;;;2.76;68.72;101644.77;3407610;80;20944;-67
2022/03/09 19:16:05;;;;;;;13.05;9.65;;;;;;;2.77;68.80;101656.80;3463303;81;21031;-67
2022/03/09 19:20:56;;;;;;;13.72;9.08;;;;;;;2.72;68.59;101663.31;3418375;80;20948;-67
2022/03/09 19:25:47;;;;;;;13.35;9.68;;;;;;;2.63;68.57;101670.95;3413467;80;21348;-67
2022/03/09 19:30:39;;;;;;;14.60;10.60;;;;;;;2.60;68.51;101672.03;3372900;82;21095;-67
2022/03/09 19:35:30;;;;;;;15.35;11.10;;;;;;;2.55;68.51;101682.39;3405299;82;20984;-67
2022/03/09 19:40:22;;;;;;;15.15;10.20;;;;;;;2.50;68.54;101685.05;3421553;82;20957;-67
2022/03/09 19:45:14;;;;;;;15.45;10.55;;;;;;;2.44;68.46;101689.80;3369019;82;20955;-67
2022/03/09 19:50:06;;;;;;;14.10;10.10;;;;;;;2.41;68.22;101688.30;3399443;82;21013;-67
2022/03/09 19:54:59;;;;;;;20.27;12.70;;;;;;;2.39;67.89;101696.30;3373339;82;21052;-67
2022/03/09 19:59:51;;;;;;;14.95;9.95;;;;;;;2.34;67.79;101698.55;3404397;82;20939;-67
2022/03/09 20:04:42;;;;;;;11.33;7.92;;;;;;;2.30;67.63;101706.84;3343388;83;21602;-67
2022/03/09 20:09:33;;;;;;;10.93;8.30;;;;;;;2.24;67.43;101713.75;3408149;80;20936;-66
2022/03/09 20:14:24;;;;;;;12.05;8.20;;;;;;;2.17;67.22;101724.39;3414133;81;21098;-67
2022/03/09 20:19:15;;;;;;;11.48;7.75;;;;;;;2.11;67.14;101727.84;3398885;81;20934;-67
2022/03/09 20:24:07;;;;;;;10.32;6.20;;;;;;;2.02;66.71;101729.77;3388524;81;22433;-67
2022/03/09 20:29:01;;;;;;;8.43;5.60;;;;;;;1.89;66.43;101744.31;3409541;82;20956;-67
2022/03/09 20:33:53;;;;;;;7.92;5.20;;;;;;;1.82;66.36;101746.36;3358449;83;21452;-66
2022/03/09 20:38:49;;;;;;;11.18;7.10;;;;;;;1.72;66.40;101762.80;3391038;81;20984;-67
2022/03/09 20:43:40;;;;;;;7.40;5.87;;;;;;;1.56;66.24;101766.34;3403657;81;20987;-66
2022/03/09 20:48:31;;;;;;;7.55;5.45;;;;;;;1.45;66.31;101784.80;3290653;83;21237;-66
2022/03/09 20:53:22;;;;;;;8.78;5.75;;;;;;;1.33;66.35;101796.37;3439274;82;20938;-67
2022/03/09 20:58:14;;;;;;;9.48;6.62;;;;;;;1.22;66.32;101808.81;3439905;82;20972;-66
2022/03/09 21:03:05;;;;;;;10.80;5.55;;;;;;;1.12;66.40;101814.53;3432497;82;21249;-66
2022/03/09 21:07:56;;;;;;;8.25;6.00;;;;;;;1.02;66.39;101820.16;3331510;83;21447;-66
2022/03/09 21:12:47;;;;;;;7.70;5.10;;;;;;;0.91;66.30;101820.64;3379614;82;20963;-67
2022/03/09 21:17:40;;;;;;;8.35;5.50;;;;;;;0.82;66.42;101819.97;3381240;82;21006;-66
2022/03/09 21:22:32;;;;;;;8.50;5.85;;;;;;;0.72;66.22;101828.26;3356905;83;20987;-66
2022/03/09 21:27:23;;;;;;;8.00;5.25;;;;;;;0.61;66.21;101839.38;3400996;81;22123;-67
2022/03/09 21:32:14;;;;;;;10.23;6.28;;;;;;;0.52;66.33;101851.45;3440128;80;21136;-66
2022/03/09 21:37:05;;;;;;;11.18;5.67;;;;;;;0.45;66.38;101853.04;3431784;81;20977;-66
2022/03/09 21:41:56;;;;;;;10.35;6.53;;;;;;;0.37;66.36;101862.30;3394611;81;22089;-66
2022/03/09 21:46:47;;;;;;;10.38;6.45;;;;;;;0.31;66.44;101864.41;3395063;81;21046;-67
2022/03/09 21:51:38;;;;;;;20.60;14.60;;;;;;;0.26;66.53;101864.84;3419035;81;21344;-66
2022/03/09 21:56:29;;;;;;;9.93;7.30;;;;;;;0.20;66.66;101875.49;3477480;80;20986;-66
2022/03/09 22:01:21;;;;;;;10.98;7.85;;;;;;;0.15;66.74;101879.36;3510392;80;20925;-66
2022/03/09 22:06:12;;;;;;;19.30;11.73;;;;;;;0.09;66.83;101887.81;3456698;81;21559;-66
2022/03/09 22:11:03;;;;;;;14.80;9.57;;;;;;;-0.01;66.57;101888.38;3398279;80;21019;-66
2022/03/09 22:15:54;;;;;;;19.65;13.13;;;;;;;-0.14;66.89;101890.76;3409178;80;21344;-66
2022/03/09 22:20:45;;;;;;;13.60;8.45;;;;;;;-0.24;67.12;101892.95;3424107;83;20964;-67
2022/03/09 22:25:36;;;;;;;19.98;13.20;;;;;;;-0.28;67.30;101899.00;3430317;80;20955;-66
2022/03/09 22:30:27;;;;;;;14.95;8.28;;;;;;;-0.32;67.40;101902.06;3486010;80;20931;-66
2022/03/09 22:35:18;;;;;;;16.67;9.70;;;;;;;-0.40;67.49;101908.73;3415234;80;21008;-67
2022/03/09 22:40:11;;;;;;;19.77;11.20;;;;;;;-0.43;67.66;101907.23;3394518;82;21031;-67
2022/03/09 22:45:02;;;;;;;18.17;10.03;;;;;;;-0.46;67.67;101909.53;3436082;82;21516;-66